Time;durP1;ratioP1;P1;durP2;ratioP2;P2;SDS_P1;SDS_P2;PMS_P1;PMS_P2;Temp;Humidity;BMP_temperature;BMP_pressure;BME280_temperature;BME280_humidity;BME280_pressure;Samples;Min_cycle;Max_cycle;Signal;HPM_P1;HPM_P2
2023/05/10 00:00:05;;;;;;;1.70;1.30;;;15.80;99.90;;;;;;5021975;28;20712;-69
2023/05/10 00:02:31;;;;;;;2.37;1.40;;;15.80;99.90;;;;;;5019065;28;20266;-69
2023/05/10 00:04:56;;;;;;;2.10;1.50;;;15.80;99.90;;;;;;5022654;28;20511;-67
2023/05/10 00:07:22;;;;;;;1.90;1.57;;;15.80;99.90;;;;;;5022311;28;20879;-67
2023/05/10 00:09:47;;;;;;;2.23;1.40;;;15.80;99.90;;;;;;5024491;28;20713;-67
2023/05/10 00:12:13;;;;;;;4.33;1.80;;;15.80;99.90;;;;;;5020400;28;20203;-67
2023/05/10 00:14:39;;;;;;;2.67;1.63;;;15.80;99.90;;;;;;5017366;28;20985;-67
2023/05/10 00:17:04;;;;;;;1.80;1.30;;;15.90;99.90;;;;;;5022961;28;20557;-67
2023/05/10 00:19:30;;;;;;;2.33;1.40;;;15.90;99.90;;;;;;5017661;28;20204;-66
2023/05/10 00:21:56;;;;;;;5.33;1.50;;;15.90;99.90;;;;;;5020577;28;20177;-67
2023/05/10 00:24:21;;;;;;;2.50;1.57;;;15.80;99.90;;;;;;5023646;28;20335;-67
2023/05/10 00:26:47;;;;;;;2.00;1.30;;;15.80;99.90;;;;;;5023345;28;20188;-67
2023/05/10 00:29:12;;;;;;;2.00;1.50;;;15.90;99.90;;;;;;5021674;28;20206;-67
2023/05/10 00:31:38;;;;;;;2.20;1.47;;;15.90;99.90;;;;;;5020931;28;20180;-67
2023/05/10 00:34:03;;;;;;;2.43;1.57;;;15.70;99.90;;;;;;5022907;28;20825;-67
2023/05/10 00:36:29;;;;;;;2.67;1.60;;;15.80;99.90;;;;;;5023147;28;20693;-67
2023/05/10 00:38:54;;;;;;;2.20;1.50;;;15.80;99.90;;;;;;5022745;28;20586;-67
2023/05/10 00:41:21;;;;;;;1.60;1.30;;;15.80;99.90;;;;;;5024274;28;20666;-67
2023/05/10 00:43:46;;;;;;;1.90;1.57;;;15.80;99.90;;;;;;5023454;28;20184;-68
2023/05/10 00:46:13;;;;;;;7.40;1.80;;;15.80;99.90;;;;;;5024538;28;20463;-67
2023/05/10 00:48:39;;;;;;;3.80;1.90;;;15.90;99.90;;;;;;5025341;28;20196;-67
2023/05/10 00:51:06;;;;;;;2.63;1.80;;;15.70;99.90;;;;;;5017128;28;21003;-67
2023/05/10 00:53:32;;;;;;;2.40;1.70;;;15.80;99.90;;;;;;5021760;28;20521;-68
2023/05/10 00:55:59;;;;;;;2.93;1.60;;;15.80;99.90;;;;;;5019783;28;20467;-68
2023/05/10 00:58:27;;;;;;;2.67;1.60;;;15.80;99.90;;;;;;5023080;28;20455;-68
2023/05/10 01:00:55;;;;;;;2.20;1.63;;;15.80;99.90;;;;;;5020690;28;20427;-68
2023/05/10 01:03:21;;;;;;;1.80;1.50;;;15.80;99.90;;;;;;5023612;28;20458;-68
2023/05/10 01:05:46;;;;;;;2.53;1.73;;;15.80;99.90;;;;;;5018910;28;20502;-68
2023/05/10 01:08:12;;;;;;;2.50;1.80;;;15.70;99.90;;;;;;5021993;28;20496;-68
2023/05/10 01:10:37;;;;;;;7.13;2.23;;;15.60;99.90;;;;;;5020897;28;20567;-68
2023/05/10 01:13:03;;;;;;;2.30;1.80;;;15.70;99.90;;;;;;5019423;28;20196;-68
2023/05/10 01:15:30;;;;;;;2.33;1.50;;;15.70;99.90;;;;;;5023719;28;20188;-68
2023/05/10 01:17:56;;;;;;;2.20;1.63;;;15.60;99.90;;;;;;5015890;28;20204;-68
2023/05/10 01:20:22;;;;;;;2.30;1.90;;;15.70;99.90;;;;;;5021954;28;20450;-67
2023/05/10 01:23:00;;;;;;;3.30;1.90;;;15.70;99.90;;;;;;5019133;28;20455;-68
2023/05/10 01:25:47;;;;;;;5.10;2.10;;;15.70;99.90;;;;;;5020772;28;20459;-68
2023/05/10 01:28:40;;;;;;;2.60;2.00;;;15.70;99.90;;;;;;5016326;28;20456;-67
2023/05/10 01:31:43;;;;;;;3.80;1.90;;;15.50;99.90;;;;;;5020813;28;20493;-67
2023/05/10 01:34:23;;;;;;;2.33;2.00;;;15.50;99.90;;;;;;5019788;28;20434;-67
2023/05/10 01:36:57;;;;;;;2.20;1.80;;;15.60;99.90;;;;;;5020583;28;20427;-68
2023/05/10 01:39:31;;;;;;;2.20;1.90;;;15.60;99.90;;;;;;5021877;28;20481;-68
2023/05/10 01:42:04;;;;;;;6.33;2.10;;;15.70;99.90;;;;;;5021064;28;20440;-68
2023/05/10 01:44:49;;;;;;;5.67;2.37;;;15.70;99.90;;;;;;5021079;28;20436;-68
2023/05/10 01:47:25;;;;;;;2.40;1.90;;;15.60;99.90;;;;;;5020313;28;20427;-68
2023/05/10 01:49:54;;;;;;;2.50;2.13;;;15.60;99.90;;;;;;5017167;28;20455;-68
2023/05/10 01:52:26;;;;;;;4.10;2.87;;;15.60;99.90;;;;;;5022402;28;22157;-68
2023/05/10 01:54:59;;;;;;;4.47;3.33;;;15.60;99.90;;;;;;5018735;28;20443;-68
2023/05/10 01:57:30;;;;;;;2.87;2.40;;;15.60;99.90;;;;;;5022605;28;20773;-68
2023/05/10 01:59:57;;;;;;;3.00;2.40;;;15.60;99.90;;;;;;5024497;28;20459;-68
2023/05/10 02:02:24;;;;;;;2.90;2.40;;;15.60;99.90;;;;;;5021806;28;20446;-68
2023/05/10 02:04:52;;;;;;;3.70;2.50;;;15.70;99.90;;;;;;5016017;28;20458;-68
2023/05/10 02:07:18;;;;;;;4.00;2.70;;;15.70;99.90;;;;;;5016989;28;20616;-68
2023/05/10 02:09:47;;;;;;;3.63;3.27;;;15.60;99.90;;;;;;5020654;28;20826;-68
2023/05/10 02:12:15;;;;;;;3.80;3.40;;;15.70;99.90;;;;;;5021525;28;20428;-68
2023/05/10 02:14:42;;;;;;;4.43;3.20;;;15.60;99.90;;;;;;5019072;28;20441;-68
2023/05/10 02:17:08;;;;;;;2.87;2.53;;;15.70;99.90;;;;;;5022885;28;20455;-68
2023/05/10 02:19:37;;;;;;;3.70;3.00;;;15.70;99.90;;;;;;5016008;28;21057;-68
2023/05/10 02:22:03;;;;;;;3.43;3.10;;;15.60;99.90;;;;;;5020208;28;20982;-68
2023/05/10 02:24:30;;;;;;;7.30;3.27;;;15.60;99.90;;;;;;5022307;28;20435;-69
2023/05/10 02:26:57;;;;;;;4.80;3.03;;;15.60;99.90;;;;;;5013640;28;20976;-68
2023/05/10 02:29:25;;;;;;;6.53;3.47;;;15.60;99.90;;;;;;5020112;28;20524;-68
2023/05/10 02:31:53;;;;;;;3.30;3.00;;;15.60;99.90;;;;;;5016965;28;20447;-69
2023/05/10 02:34:21;;;;;;;4.03;3.00;;;15.60;99.90;;;;;;5022328;28;21018;-68
2023/05/10 02:36:47;;;;;;;4.10;2.97;;;15.60;99.90;;;;;;5024067;28;20423;-68
2023/05/10 02:39:15;;;;;;;3.60;3.20;;;15.60;99.90;;;;;;5018651;28;20581;-69
2023/05/10 02:41:42;;;;;;;9.00;4.10;;;15.60;99.90;;;;;;5020565;28;20481;-69
2023/05/10 02:44:09;;;;;;;4.70;3.20;;;15.60;99.90;;;;;;5017893;28;20411;-68
2023/05/10 02:46:36;;;;;;;6.50;3.67;;;15.60;99.90;;;;;;5022216;28;20459;-68
2023/05/10 02:49:03;;;;;;;4.70;3.70;;;15.60;99.90;;;;;;5021411;28;20457;-68
2023/05/10 02:51:33;;;;;;;6.00;4.13;;;15.60;99.90;;;;;;5018989;28;20447;-68
2023/05/10 02:54:07;;;;;;;4.43;4.03;;;15.60;99.90;;;;;;5020204;28;20439;-68
2023/05/10 02:56:35;;;;;;;4.33;3.63;;;15.60;99.90;;;;;;5018774;28;20439;-68
2023/05/10 02:59:01;;;;;;;4.10;3.70;;;15.60;99.90;;;;;;5021856;28;20458;-68
2023/05/10 03:01:27;;;;;;;4.20;3.57;;;15.50;99.90;;;;;;5013162;28;20553;-68
2023/05/10 03:03:53;;;;;;;3.67;3.33;;;15.50;99.90;;;;;;5022701;28;20453;-68
2023/05/10 03:06:18;;;;;;;8.30;3.80;;;15.40;99.90;;;;;;5016453;28;20219;-68
2023/05/10 03:08:45;;;;;;;4.20;3.80;;;15.40;99.90;;;;;;5016722;28;20570;-68
2023/05/10 03:11:29;;;;;;;5.00;3.60;;;15.30;99.90;;;;;;5017338;28;20242;-68
2023/05/10 03:14:07;;;;;;;4.03;3.63;;;15.30;99.90;;;;;;5015696;28;20458;-68
2023/05/10 03:16:45;;;;;;;3.70;3.30;;;15.30;99.90;;;;;;5019787;28;20445;-68
2023/05/10 03:19:24;;;;;;;4.93;3.50;;;15.30;99.90;;;;;;5013948;28;20557;-68
2023/05/10 03:21:52;;;;;;;4.27;3.83;;;15.30;99.90;;;;;;5017072;28;20450;-68
2023/05/10 03:24:21;;;;;;;3.90;3.50;;;15.30;99.90;;;;;;5017582;28;20522;-67
2023/05/10 03:26:48;;;;;;;4.43;3.97;;;15.20;99.90;;;;;;5019501;28;20442;-67
2023/05/10 03:29:15;;;;;;;4.07;3.77;;;15.20;99.90;;;;;;5019691;28;20471;-68
2023/05/10 03:31:41;;;;;;;3.83;3.40;;;15.30;99.90;;;;;;5017824;28;20439;-68
2023/05/10 03:34:07;;;;;;;4.50;3.43;;;15.30;99.90;;;;;;5017263;28;20945;-67
2023/05/10 03:36:32;;;;;;;3.77;3.40;;;15.30;99.90;;;;;;5019140;28;20919;-68
2023/05/10 03:38:58;;;;;;;5.97;3.93;;;15.20;99.90;;;;;;5020277;28;20531;-68
2023/05/10 03:41:25;;;;;;;4.40;4.00;;;15.20;99.90;;;;;;5015625;28;20192;-69
2023/05/10 03:43:51;;;;;;;3.93;3.40;;;15.20;99.90;;;;;;5017732;28;20351;-68
2023/05/10 03:46:17;;;;;;;4.50;3.90;;;15.20;99.90;;;;;;5019592;28;20482;-68
2023/05/10 03:48:43;;;;;;;4.60;3.43;;;15.20;99.90;;;;;;5017877;28;20988;-68
2023/05/10 03:51:08;;;;;;;4.07;3.63;;;15.20;99.90;;;;;;5018484;28;20732;-68
2023/05/10 03:53:34;;;;;;;3.50;3.13;;;15.20;99.90;;;;;;5016546;28;20181;-68
2023/05/10 03:55:59;;;;;;;4.00;3.10;;;15.30;99.90;;;;;;5019348;28;20635;-68
2023/05/10 03:58:25;;;;;;;9.33;3.57;;;15.30;99.90;;;;;;5018511;28;20280;-68
2023/05/10 04:00:51;;;;;;;3.87;3.40;;;15.30;99.90;;;;;;5018152;28;20701;-68
2023/05/10 04:03:17;;;;;;;3.40;3.10;;;15.30;99.90;;;;;;5017771;28;20180;-68
2023/05/10 04:05:43;;;;;;;3.00;2.70;;;15.30;99.90;;;;;;5018030;28;20466;-68
2023/05/10 04:08:08;;;;;;;4.63;3.70;;;15.20;99.90;;;;;;5015351;28;20205;-68
2023/05/10 04:10:34;;;;;;;3.03;2.70;;;15.20;99.90;;;;;;5021013;28;20189;-68
2023/05/10 04:12:59;;;;;;;4.43;3.23;;;15.20;99.90;;;;;;5018736;28;20185;-68
2023/05/10 04:15:25;;;;;;;10.83;3.20;;;15.30;99.90;;;;;;5021436;28;20188;-68
2023/05/10 04:17:51;;;;;;;3.47;3.17;;;15.30;99.90;;;;;;5022053;28;20203;-68
2023/05/10 04:20:16;;;;;;;3.97;3.00;;;15.30;99.90;;;;;;5024935;28;20226;-69
2023/05/10 04:22:42;;;;;;;3.80;3.30;;;15.20;99.90;;;;;;5023118;28;20196;-69
2023/05/10 04:25:08;;;;;;;3.30;3.00;;;15.30;99.90;;;;;;5024356;28;20208;-68
2023/05/10 04:27:33;;;;;;;5.33;3.17;;;15.40;99.90;;;;;;5025187;28;20180;-69
2023/05/10 04:29:59;;;;;;;3.47;2.97;;;15.30;99.90;;;;;;5021633;28;20441;-69
2023/05/10 04:32:25;;;;;;;5.07;3.23;;;15.40;99.90;;;;;;5019907;28;20631;-68
2023/05/10 04:34:52;;;;;;;3.40;2.90;;;15.40;99.90;;;;;;5022427;28;20681;-68
2023/05/10 04:37:17;;;;;;;3.50;3.20;;;15.50;99.90;;;;;;5021007;28;20181;-69
2023/05/10 04:39:43;;;;;;;4.20;3.43;;;15.50;99.90;;;;;;5020623;28;20822;-68
2023/05/10 04:42:09;;;;;;;4.50;3.07;;;15.40;99.90;;;;;;5023340;28;20201;-68
2023/05/10 04:44:35;;;;;;;4.93;3.47;;;15.50;99.90;;;;;;5017576;28;20197;-68
2023/05/10 04:47:02;;;;;;;3.33;3.03;;;15.50;99.90;;;;;;5021519;28;20188;-68
2023/05/10 04:49:28;;;;;;;3.87;3.47;;;15.60;99.90;;;;;;5019484;28;20465;-68
2023/05/10 04:51:53;;;;;;;5.53;3.93;;;15.60;99.90;;;;;;5024513;28;20438;-68
2023/05/10 04:54:19;;;;;;;4.87;4.30;;;15.60;99.90;;;;;;5022355;28;20470;-68
2023/05/10 04:56:44;;;;;;;6.33;3.10;;;15.60;99.90;;;;;;5021687;28;20188;-68
2023/05/10 04:59:10;;;;;;;3.37;3.00;;;15.60;99.90;;;;;;5018054;28;20220;-68
2023/05/10 05:01:35;;;;;;;4.53;3.53;;;15.70;99.90;;;;;;5021856;28;20199;-68
2023/05/10 05:04:01;;;;;;;5.23;3.60;;;15.60;99.90;;;;;;5023428;28;20212;-68
2023/05/10 05:06:27;;;;;;;4.77;3.20;;;15.60;99.90;;;;;;5031143;28;20246;-69
2023/05/10 05:08:52;;;;;;;4.90;4.20;;;15.70;99.90;;;;;;5018365;28;20209;-68
2023/05/10 05:11:18;;;;;;;5.70;3.90;;;15.50;99.90;;;;;;5019256;28;20185;-68
2023/05/10 05:13:44;;;;;;;6.97;3.83;;;15.50;99.90;;;;;;5017568;28;20188;-68
2023/05/10 05:16:10;;;;;;;5.53;4.33;;;15.60;99.90;;;;;;5023673;28;20703;-68
2023/05/10 05:18:36;;;;;;;3.80;3.40;;;15.70;99.90;;;;;;5020427;28;20204;-68
2023/05/10 05:21:01;;;;;;;4.20;3.80;;;15.70;99.90;;;;;;5023449;28;20870;-68
2023/05/10 05:23:27;;;;;;;4.33;3.60;;;15.70;99.90;;;;;;5020286;28;20199;-68
2023/05/10 05:25:53;;;;;;;4.70;4.07;;;15.70;99.90;;;;;;5018609;28;20216;-68
2023/05/10 05:28:22;;;;;;;3.87;3.40;;;15.80;99.90;;;;;;5020173;28;20208;-68
2023/05/10 05:30:47;;;;;;;4.40;3.47;;;15.80;99.90;;;;;;5019298;28;20435;-68
2023/05/10 05:33:15;;;;;;;5.10;4.00;;;15.80;99.90;;;;;;5021092;28;20435;-68
2023/05/10 05:35:41;;;;;;;4.83;3.73;;;15.90;99.90;;;;;;5020441;28;20188;-68
2023/05/10 05:38:06;;;;;;;4.27;3.83;;;15.90;99.90;;;;;;5023169;28;21201;-68
2023/05/10 05:40:32;;;;;;;4.50;3.27;;;15.90;99.90;;;;;;5018333;28;20271;-68
2023/05/10 05:42:57;;;;;;;5.47;3.70;;;15.90;99.90;;;;;;5018706;28;20260;-68
2023/05/10 05:45:23;;;;;;;3.87;3.57;;;15.90;99.90;;;;;;5017716;28;20320;-68
2023/05/10 05:47:48;;;;;;;7.50;4.07;;;15.90;99.90;;;;;;5020027;28;20240;-68
2023/05/10 05:50:14;;;;;;;5.20;3.50;;;15.90;99.90;;;;;;5018593;28;20193;-68
2023/05/10 05:52:40;;;;;;;5.40;3.77;;;15.90;99.90;;;;;;5020006;28;20184;-69
2023/05/10 05:55:05;;;;;;;4.83;3.90;;;16.00;99.90;;;;;;5015614;28;20614;-68
2023/05/10 05:57:31;;;;;;;3.50;3.17;;;16.10;99.90;;;;;;5016654;28;20238;-67
2023/05/10 05:59:57;;;;;;;3.80;3.40;;;16.00;99.90;;;;;;5018814;28;20189;-69
2023/05/10 06:02:22;;;;;;;3.20;2.70;;;16.10;99.90;;;;;;5014235;28;20196;-68
2023/05/10 06:04:48;;;;;;;2.97;2.60;;;16.10;99.90;;;;;;5020954;28;21022;-67
2023/05/10 06:07:13;;;;;;;3.00;2.47;;;16.10;99.90;;;;;;5015409;28;20233;-69
2023/05/10 06:09:39;;;;;;;3.20;2.63;;;16.10;99.90;;;;;;5021236;28;20624;-68
2023/05/10 06:12:04;;;;;;;4.43;2.63;;;16.10;99.90;;;;;;5018247;28;20188;-68
2023/05/10 06:14:30;;;;;;;2.87;2.57;;;16.10;99.90;;;;;;5016028;28;20638;-67
2023/05/10 06:16:56;;;;;;;4.20;2.73;;;16.10;99.90;;;;;;5015428;28;20276;-68
2023/05/10 06:19:21;;;;;;;3.30;2.60;;;16.20;99.90;;;;;;5018449;28;20208;-68
2023/05/10 06:21:47;;;;;;;4.10;2.70;;;16.20;99.90;;;;;;5021387;28;20180;-67
2023/05/10 06:24:12;;;;;;;3.63;2.80;;;16.20;99.90;;;;;;5020501;28;20180;-68
2023/05/10 06:26:38;;;;;;;9.23;2.80;;;16.20;99.90;;;;;;5019893;28;20270;-67
2023/05/10 06:29:03;;;;;;;3.97;2.70;;;16.20;99.90;;;;;;5018288;28;20197;-67
2023/05/10 06:31:29;;;;;;;3.77;2.80;;;16.20;99.90;;;;;;5021012;28;20267;-67
2023/05/10 06:33:55;;;;;;;6.17;3.20;;;16.20;99.90;;;;;;5017552;28;20211;-68
2023/05/10 06:36:20;;;;;;;7.10;3.40;;;16.30;99.90;;;;;;5019746;28;20184;-67
2023/05/10 06:38:46;;;;;;;3.20;2.57;;;16.30;99.90;;;;;;5018559;28;20243;-68
2023/05/10 06:41:11;;;;;;;4.10;2.63;;;16.20;99.90;;;;;;5022493;28;20181;-71
2023/05/10 06:43:39;;;;;;;3.73;2.33;;;16.20;99.90;;;;;;5021949;28;20263;-70
2023/05/10 06:46:06;;;;;;;3.73;2.47;;;16.20;99.90;;;;;;5019501;28;20204;-70
2023/05/10 06:48:32;;;;;;;4.10;2.57;;;16.10;99.90;;;;;;5015880;28;20455;-70
2023/05/10 06:50:57;;;;;;;3.00;2.40;;;16.10;99.90;;;;;;5020652;28;21176;-69
2023/05/10 06:53:23;;;;;;;3.33;2.37;;;16.30;99.90;;;;;;5010585;28;20185;-69
2023/05/10 06:55:49;;;;;;;3.30;2.37;;;16.30;99.90;;;;;;5018559;28;20180;-72
2023/05/10 06:58:15;;;;;;;2.70;2.23;;;16.40;99.90;;;;;;5021921;28;20212;-72
2023/05/10 07:00:43;;;;;;;2.80;2.37;;;16.40;99.90;;;;;;5019398;28;20435;-72
2023/05/10 07:03:10;;;;;;;4.00;2.40;;;16.40;99.90;;;;;;5021606;28;20229;-73
2023/05/10 07:05:36;;;;;;;4.10;3.20;;;16.50;99.90;;;;;;5012818;28;20525;-71
2023/05/10 07:08:01;;;;;;;3.87;2.80;;;16.60;99.90;;;;;;5015226;28;20833;-71
2023/05/10 07:10:27;;;;;;;3.73;2.50;;;16.50;99.90;;;;;;5018554;28;20213;-70
2023/05/10 07:12:53;;;;;;;6.30;2.43;;;16.60;99.90;;;;;;5019670;28;20239;-69
2023/05/10 07:15:18;;;;;;;3.10;2.57;;;16.50;99.90;;;;;;5006096;28;20238;-69
2023/05/10 07:17:44;;;;;;;3.60;2.67;;;16.60;99.90;;;;;;5016636;28;20283;-70
2023/05/10 07:20:10;;;;;;;3.07;2.43;;;16.60;99.90;;;;;;5021397;28;20692;-70
2023/05/10 07:22:36;;;;;;;4.23;2.20;;;16.70;99.90;;;;;;5019441;28;20206;-70
2023/05/10 07:25:02;;;;;;;3.10;2.10;;;16.60;99.90;;;;;;5017065;28;20463;-70
2023/05/10 07:27:27;;;;;;;9.10;2.17;;;16.40;99.90;;;;;;5019718;28;20235;-69
2023/05/10 07:29:54;;;;;;;2.40;1.93;;;16.30;99.90;;;;;;5022970;28;20427;-69
2023/05/10 07:32:20;;;;;;;2.67;1.60;;;16.20;99.90;;;;;;5022285;28;20282;-68
2023/05/10 07:34:45;;;;;;;4.43;2.00;;;16.30;99.90;;;;;;5018002;28;20427;-69
2023/05/10 07:37:11;;;;;;;3.50;1.70;;;16.40;99.90;;;;;;5022298;28;20828;-71
2023/05/10 07:39:37;;;;;;;5.73;1.90;;;16.60;99.90;;;;;;5020682;28;20225;-70
2023/05/10 07:42:02;;;;;;;3.10;1.70;;;16.70;99.90;;;;;;5020879;28;20258;-70
2023/05/10 07:44:28;;;;;;;2.40;1.80;;;16.80;99.90;;;;;;5021822;28;20701;-70
2023/05/10 07:46:54;;;;;;;2.40;1.90;;;16.80;99.90;;;;;;5020043;28;20191;-70
2023/05/10 07:49:19;;;;;;;2.10;1.67;;;16.80;99.90;;;;;;5021832;28;20235;-69
2023/05/10 07:51:45;;;;;;;3.43;1.80;;;16.80;99.90;;;;;;5024889;28;20259;-69
2023/05/10 07:54:11;;;;;;;3.30;1.60;;;16.90;99.90;;;;;;5023439;28;20601;-70
2023/05/10 07:56:36;;;;;;;2.73;1.90;;;17.00;99.90;;;;;;5022526;28;20176;-71
2023/05/10 07:59:04;;;;;;;3.50;1.73;;;17.00;99.90;;;;;;5020886;28;20201;-69
2023/05/10 08:01:34;;;;;;;2.63;1.70;;;17.10;99.90;;;;;;5021116;28;20271;-69
2023/05/10 08:04:00;;;;;;;2.60;2.07;;;17.20;99.90;;;;;;5025071;28;20447;-69
2023/05/10 08:06:27;;;;;;;3.63;2.10;;;17.30;99.90;;;;;;5016904;28;20962;-69
2023/05/10 08:08:54;;;;;;;2.50;1.80;;;17.10;99.90;;;;;;5020963;28;20463;-69
2023/05/10 08:11:20;;;;;;;2.83;1.70;;;17.20;99.90;;;;;;5020957;28;20512;-71
2023/05/10 08:13:46;;;;;;;2.60;1.87;;;17.10;99.90;;;;;;5023488;28;21669;-71
2023/05/10 08:16:12;;;;;;;3.10;2.00;;;17.20;99.90;;;;;;5024647;28;20471;-70
2023/05/10 08:18:38;;;;;;;3.40;2.00;;;17.20;99.90;;;;;;5020605;28;21103;-69
2023/05/10 08:21:04;;;;;;;2.27;1.53;;;17.20;99.90;;;;;;5021247;28;20188;-71
2023/05/10 08:23:30;;;;;;;2.40;2.20;;;17.20;99.90;;;;;;5021585;28;20826;-69
2023/05/10 08:25:55;;;;;;;6.13;2.37;;;17.40;99.90;;;;;;5017727;28;20544;-69
2023/05/10 08:28:21;;;;;;;1.80;1.37;;;17.50;99.90;;;;;;5016655;28;20216;-69
2023/05/10 08:30:46;;;;;;;2.40;1.80;;;17.70;99.90;;;;;;5021428;28;20181;-69
2023/05/10 08:33:12;;;;;;;2.67;1.63;;;17.80;99.90;;;;;;5023620;28;20191;-69
2023/05/10 08:35:37;;;;;;;2.40;1.60;;;17.70;99.90;;;;;;5014812;28;20177;-70
2023/05/10 08:38:03;;;;;;;2.33;1.60;;;17.70;99.90;;;;;;5014693;28;21368;-69
2023/05/10 08:40:29;;;;;;;6.03;1.60;;;17.60;99.90;;;;;;5023582;28;20233;-69
2023/05/10 08:43:05;;;;;;;3.10;1.70;;;17.60;99.90;;;;;;5018985;28;20275;-69
2023/05/10 08:45:34;;;;;;;3.67;2.00;;;17.70;99.90;;;;;;5017290;28;20290;-69
2023/05/10 08:48:04;;;;;;;3.70;1.60;;;17.60;99.90;;;;;;5021146;28;20920;-69
2023/05/10 08:50:31;;;;;;;2.00;1.60;;;17.40;99.90;;;;;;5021294;28;20863;-69
2023/05/10 08:52:59;;;;;;;3.63;1.43;;;17.30;99.90;;;;;;5020195;28;20442;-70
2023/05/10 08:55:26;;;;;;;2.13;1.77;;;17.40;99.90;;;;;;5023496;28;20450;-70
2023/05/10 08:57:51;;;;;;;1.80;1.43;;;17.50;99.90;;;;;;5024047;28;20426;-70
2023/05/10 09:00:18;;;;;;;2.27;1.73;;;17.40;99.90;;;;;;5022857;28;21021;-70
2023/05/10 09:02:45;;;;;;;3.60;1.70;;;17.40;99.90;;;;;;5022014;28;20196;-71
2023/05/10 09:05:12;;;;;;;3.30;1.90;;;17.50;99.90;;;;;;5026007;28;21299;-70
2023/05/10 09:07:37;;;;;;;2.10;1.80;;;17.50;99.90;;;;;;5017446;28;20435;-70
2023/05/10 09:10:04;;;;;;;4.10;2.20;;;17.40;99.90;;;;;;5025066;28;20450;-71
2023/05/10 09:12:30;;;;;;;2.97;1.80;;;17.40;99.90;;;;;;5021813;28;20635;-71
2023/05/10 09:14:57;;;;;;;2.10;1.80;;;17.40;99.90;;;;;;5021177;28;20477;-70
2023/05/10 09:17:25;;;;;;;1.93;1.50;;;17.40;99.90;;;;;;5021999;28;20664;-71
2023/05/10 09:19:56;;;;;;;6.13;1.80;;;17.40;99.90;;;;;;5023078;28;20541;-70
2023/05/10 09:22:22;;;;;;;2.83;1.70;;;17.40;99.90;;;;;;5017906;28;20435;-69
2023/05/10 09:25:02;;;;;;;2.07;1.70;;;17.40;99.90;;;;;;5019568;28;20439;-71
2023/05/10 09:27:28;;;;;;;4.60;1.87;;;17.50;99.90;;;;;;5019095;28;20435;-70
2023/05/10 09:29:54;;;;;;;2.33;1.73;;;17.30;99.90;;;;;;5019242;28;20455;-69
2023/05/10 09:32:20;;;;;;;2.73;1.60;;;17.10;99.90;;;;;;5023021;28;20180;-70
2023/05/10 09:34:49;;;;;;;5.77;1.90;;;17.20;99.90;;;;;;5021020;28;20497;-70
2023/05/10 09:37:15;;;;;;;2.20;1.80;;;17.40;99.90;;;;;;5018528;28;20188;-70
2023/05/10 09:39:41;;;;;;;2.57;1.80;;;17.40;99.90;;;;;;5021793;28;20463;-69
2023/05/10 09:42:08;;;;;;;3.57;1.70;;;17.40;99.90;;;;;;5021810;28;20259;-69
2023/05/10 09:44:35;;;;;;;2.37;1.60;;;17.50;99.90;;;;;;5021226;28;20885;-69
2023/05/10 09:47:02;;;;;;;4.57;1.77;;;17.30;99.90;;;;;;5019905;28;20976;-71
2023/05/10 09:49:28;;;;;;;2.27;2.03;;;17.00;99.90;;;;;;5023254;28;20451;-70
2023/05/10 09:52:02;;;;;;;6.07;1.70;;;17.10;99.90;;;;;;5017480;28;20480;-69
2023/05/10 09:54:27;;;;;;;2.37;1.77;;;17.30;99.90;;;;;;5022279;28;20441;-69
2023/05/10 09:56:53;;;;;;;2.33;1.70;;;17.40;99.90;;;;;;5020690;28;20443;-69
2023/05/10 09:59:19;;;;;;;2.20;1.80;;;17.50;99.90;;;;;;5020594;28;20765;-69
2023/05/10 10:01:50;;;;;;;11.90;2.07;;;17.60;99.90;;;;;;5021306;28;20180;-70
2023/05/10 10:04:16;;;;;;;1.90;1.60;;;17.80;99.90;;;;;;5019988;28;20561;-70
2023/05/10 10:06:42;;;;;;;2.30;1.70;;;17.90;99.90;;;;;;5019865;28;20466;-70
2023/05/10 10:09:08;;;;;;;5.23;2.40;;;18.10;99.90;;;;;;5019203;28;20203;-70
2023/05/10 10:11:38;;;;;;;2.73;1.87;;;18.30;99.90;;;;;;5017859;28;20189;-70
2023/05/10 10:14:04;;;;;;;3.33;1.93;;;18.20;99.90;;;;;;5022280;28;20431;-69
2023/05/10 10:16:31;;;;;;;3.17;1.97;;;18.20;99.90;;;;;;5021218;28;20949;-69
2023/05/10 10:18:57;;;;;;;2.90;2.17;;;18.40;99.90;;;;;;5018353;28;20470;-70
2023/05/10 10:21:23;;;;;;;3.10;2.10;;;18.40;99.90;;;;;;5021194;28;20439;-69
2023/05/10 10:23:49;;;;;;;6.53;2.40;;;18.20;99.90;;;;;;5019718;28;20964;-68
2023/05/10 10:26:17;;;;;;;2.10;1.90;;;18.10;99.90;;;;;;5020030;28;20466;-70
2023/05/10 10:29:14;;;;;;;3.47;2.43;;;18.00;99.90;;;;;;5020155;28;21097;-70
2023/05/10 10:31:54;;;;;;;2.50;2.17;;;18.10;99.90;;;;;;5018066;28;20438;-69
2023/05/10 10:34:27;;;;;;;3.07;2.00;;;18.00;99.90;;;;;;5014820;28;20735;-69
2023/05/10 10:36:54;;;;;;;3.50;2.13;;;18.10;99.90;;;;;;5019511;28;20643;-70
2023/05/10 10:39:20;;;;;;;2.30;2.00;;;18.30;99.90;;;;;;5021408;28;20506;-69
2023/05/10 10:41:54;;;;;;;3.27;2.70;;;18.30;99.90;;;;;;5020758;28;20481;-69
2023/05/10 10:44:23;;;;;;;5.70;2.90;;;18.40;99.90;;;;;;5018509;28;20184;-70
2023/05/10 10:47:11;;;;;;;5.10;2.80;;;18.60;99.90;;;;;;5019647;28;20465;-69
2023/05/10 10:49:51;;;;;;;2.90;2.60;;;18.70;99.90;;;;;;5019879;28;20538;-69
2023/05/10 10:52:32;;;;;;;5.83;3.47;;;18.80;99.90;;;;;;5022097;28;20444;-70
2023/05/10 10:55:29;;;;;;;6.60;3.30;;;18.30;99.90;;;;;;5015458;28;20431;-68
2023/05/10 10:58:00;;;;;;;5.10;3.03;;;18.30;99.90;;;;;;5021016;28;20473;-68
2023/05/10 11:00:30;;;;;;;3.97;2.93;;;18.40;99.90;;;;;;5021961;28;20439;-67
2023/05/10 11:02:59;;;;;;;4.07;3.10;;;18.40;99.90;;;;;;5015635;28;20435;-68
2023/05/10 11:05:43;;;;;;;4.13;2.80;;;18.50;99.90;;;;;;5022338;28;21183;-68
2023/05/10 11:08:28;;;;;;;3.77;2.97;;;18.60;99.90;;;;;;5018573;28;20537;-69
2023/05/10 11:11:00;;;;;;;4.90;3.30;;;18.70;99.90;;;;;;5014995;28;20438;-68
2023/05/10 11:13:29;;;;;;;3.70;3.33;;;19.00;99.90;;;;;;5016773;28;20822;-69
2023/05/10 11:15:57;;;;;;;3.50;2.57;;;19.00;99.90;;;;;;5020658;28;20427;-68
2023/05/10 11:18:29;;;;;;;6.20;3.43;;;19.10;99.90;;;;;;5017493;28;20469;-68
2023/05/10 11:21:00;;;;;;;3.77;2.77;;;19.20;99.90;;;;;;5010772;28;20492;-69
2023/05/10 11:23:32;;;;;;;2.87;2.57;;;19.30;99.90;;;;;;5014970;28;20435;-68
2023/05/10 11:26:00;;;;;;;4.07;2.63;;;19.30;99.90;;;;;;5016905;28;21039;-67
2023/05/10 11:28:27;;;;;;;3.30;3.00;;;19.10;99.90;;;;;;5018940;28;20571;-68
2023/05/10 11:30:53;;;;;;;3.23;2.37;;;19.20;99.90;;;;;;5018381;28;20442;-68
2023/05/10 11:33:19;;;;;;;3.10;2.30;;;19.20;99.90;;;;;;5017160;28;20415;-68
2023/05/10 11:35:45;;;;;;;2.30;1.93;;;18.80;99.90;;;;;;5018313;28;20185;-68
2023/05/10 11:38:12;;;;;;;3.43;2.10;;;18.80;99.90;;;;;;5017248;28;20459;-68
2023/05/10 11:40:38;;;;;;;2.30;2.07;;;18.80;99.90;;;;;;5019652;28;20258;-68
2023/05/10 11:43:05;;;;;;;3.00;2.30;;;18.90;99.90;;;;;;5016167;28;20438;-69
2023/05/10 11:45:34;;;;;;;3.30;2.33;;;18.90;99.90;;;;;;5016618;28;20467;-68
2023/05/10 11:48:01;;;;;;;6.13;2.20;;;18.60;99.90;;;;;;5017738;28;20463;-69
2023/05/10 11:50:27;;;;;;;3.93;2.27;;;18.50;99.90;;;;;;5018820;28;20439;-69
2023/05/10 11:52:54;;;;;;;3.43;1.80;;;18.50;99.90;;;;;;5013903;28;20447;-69
2023/05/10 11:55:20;;;;;;;3.67;2.40;;;18.50;99.90;;;;;;5021950;28;20817;-69
2023/05/10 11:57:46;;;;;;;5.63;2.07;;;18.40;99.90;;;;;;5016879;28;20440;-68
2023/05/10 12:00:15;;;;;;;2.10;1.87;;;18.30;99.90;;;;;;5018426;28;20197;-69
2023/05/10 12:02:41;;;;;;;2.70;2.00;;;18.30;99.90;;;;;;5015472;28;20949;-69
2023/05/10 12:05:07;;;;;;;2.93;2.13;;;18.40;99.90;;;;;;5017071;28;20459;-67
2023/05/10 12:07:32;;;;;;;3.07;1.90;;;18.60;99.90;;;;;;5019668;28;20294;-67
2023/05/10 12:10:08;;;;;;;3.20;2.10;;;19.00;99.90;;;;;;5018828;28;20506;-67
2023/05/10 12:12:44;;;;;;;3.30;2.20;;;19.60;99.90;;;;;;5019658;28;20263;-67
2023/05/10 12:15:21;;;;;;;2.97;2.27;;;20.00;99.90;;;;;;5017202;28;20887;-67
2023/05/10 12:17:48;;;;;;;2.60;2.20;;;20.10;99.90;;;;;;5013332;28;20926;-68
2023/05/10 12:20:24;;;;;;;3.30;2.10;;;20.10;99.90;;;;;;5020496;28;20510;-68
2023/05/10 12:22:53;;;;;;;3.17;2.43;;;20.30;99.90;;;;;;5014323;28;20851;-67
2023/05/10 12:25:20;;;;;;;4.73;2.00;;;20.70;99.90;;;;;;5018131;28;20474;-68
2023/05/10 12:27:53;;;;;;;3.53;2.23;;;20.70;99.90;;;;;;5020740;28;20428;-68
2023/05/10 12:30:23;;;;;;;2.50;2.30;;;20.20;99.90;;;;;;5024580;28;20495;-69
2023/05/10 12:32:49;;;;;;;4.23;2.47;;;19.60;99.90;;;;;;5022919;28;20435;-68
2023/05/10 12:35:15;;;;;;;3.17;2.50;;;19.50;99.90;;;;;;5025430;28;20444;-68
2023/05/10 12:37:42;;;;;;;3.57;2.20;;;19.60;99.90;;;;;;5022497;28;20446;-68
2023/05/10 12:40:10;;;;;;;2.50;2.10;;;19.80;99.90;;;;;;5023106;28;20454;-68
2023/05/10 12:42:38;;;;;;;3.20;2.40;;;20.30;99.90;;;;;;5015897;28;20960;-68
2023/05/10 12:45:05;;;;;;;3.20;2.20;;;20.90;99.90;;;;;;5026344;28;20463;-68
2023/05/10 12:47:31;;;;;;;2.40;2.13;;;21.10;99.90;;;;;;5016334;28;20528;-68
2023/05/10 12:49:57;;;;;;;2.70;2.20;;;21.50;99.90;;;;;;5016850;28;20454;-68